Time;durP1;ratioP1;P1;durP2;ratioP2;P2;SDS_P1;SDS_P2;PMS_P1;PMS_P2;Temp;Humidity;BMP_temperature;BMP_pressure;BME280_temperature;BME280_humidity;BME280_pressure;Samples;Min_cycle;Max_cycle;Signal;HPM_P1;HPM_P2
2022/03/16 00:00:05;;;;;;;1999.90;999.90;;;;;;;3.61;53.70;102022.53;4947411;28;98292;-72
2022/03/16 00:02:40;;;;;;;1999.90;999.90;;;;;;;3.35;54.69;102029.44;4939699;28;97697;-71
2022/03/16 00:05:09;;;;;;;1999.90;999.90;;;;;;;3.26;54.85;102034.94;4942326;28;98697;-71
2022/03/16 00:07:37;;;;;;;1999.90;999.90;;;;;;;3.21;54.24;102041.59;4944058;28;99604;-71
2022/03/16 00:10:07;;;;;;;1999.90;999.90;;;;;;;3.14;54.72;102042.91;4947967;28;97607;-71
2022/03/16 00:12:35;;;;;;;1999.90;999.90;;;;;;;3.09;55.09;102043.38;4948545;28;97700;-71
2022/03/16 00:15:04;;;;;;;1999.90;999.90;;;;;;;3.05;55.07;102054.47;4950059;28;97710;-71
2022/03/16 00:17:32;;;;;;;1999.90;999.90;;;;;;;2.99;54.62;102054.03;4949436;28;97362;-71
2022/03/16 00:20:01;;;;;;;1999.90;999.90;;;;;;;2.93;54.54;102054.50;4943576;28;97312;-71
2022/03/16 00:22:29;;;;;;;1999.90;999.90;;;;;;;2.89;54.73;102062.06;4939005;28;97260;-72
2022/03/16 00:24:57;;;;;;;1999.90;999.90;;;;;;;2.83;55.28;102057.28;4937896;28;98773;-72
2022/03/16 00:27:25;;;;;;;1999.90;999.90;;;;;;;2.80;54.54;102062.31;4943124;28;100610;-71
2022/03/16 00:29:52;;;;;;;1999.90;999.90;;;;;;;2.77;55.32;102069.97;4945319;28;98504;-71
2022/03/16 00:32:20;;;;;;;1999.90;999.90;;;;;;;2.73;54.71;102072.28;4948469;28;96883;-71
2022/03/16 00:34:48;;;;;;;1999.90;999.90;;;;;;;2.70;55.11;102072.03;4943612;28;99647;-71
2022/03/16 00:37:17;;;;;;;1999.90;999.90;;;;;;;2.67;55.21;102070.13;4945707;28;100924;-71
2022/03/16 00:39:45;;;;;;;1999.90;999.90;;;;;;;2.66;55.18;102072.63;4946496;28;98334;-71
2022/03/16 00:42:13;;;;;;;1999.90;999.90;;;;;;;2.63;55.21;102070.69;4944189;28;97156;-71
2022/03/16 00:44:41;;;;;;;1999.90;999.90;;;;;;;2.60;55.16;102067.81;4930570;28;98554;-71
2022/03/16 00:47:09;;;;;;;1999.90;999.90;;;;;;;2.57;55.07;102070.22;4945069;28;99283;-71
2022/03/16 00:49:37;;;;;;;1999.90;999.90;;;;;;;2.54;55.04;102079.59;4928005;28;96855;-71
2022/03/16 00:52:05;;;;;;;1999.90;999.90;;;;;;;2.51;54.92;102084.66;4944266;28;97384;-71
2022/03/16 00:54:35;;;;;;;1999.90;999.90;;;;;;;2.48;55.11;102087.94;4948280;28;100392;-71
2022/03/16 00:57:03;;;;;;;1999.90;999.90;;;;;;;2.47;54.84;102095.72;4944321;28;99405;-72
2022/03/16 00:59:31;;;;;;;1999.90;999.90;;;;;;;2.45;55.20;102089.44;4930716;28;96895;-71
2022/03/16 01:02:00;;;;;;;1999.90;999.90;;;;;;;2.43;55.04;102093.66;4946432;28;96940;-71
2022/03/16 01:04:29;;;;;;;1999.90;999.90;;;;;;;2.39;55.26;102092.53;4928325;28;100592;-71
2022/03/16 01:06:58;;;;;;;1999.90;999.90;;;;;;;2.36;55.36;102101.88;4946970;28;100223;-71
2022/03/16 01:09:26;;;;;;;1999.90;999.90;;;;;;;2.33;55.07;102109.53;4952155;22;97204;-76
2022/03/16 01:11:56;;;;;;;1999.90;999.90;;;;;;;2.31;55.05;102105.88;4915329;28;99059;-76
2022/03/16 01:14:23;;;;;;;1999.90;999.90;;;;;;;2.28;55.36;102108.25;4906505;28;101549;-76
2022/03/16 01:16:52;;;;;;;1999.90;999.90;;;;;;;2.25;55.06;102113.28;4903369;28;99210;-76
2022/03/16 01:19:19;;;;;;;1999.90;999.90;;;;;;;2.21;55.57;102122.66;4923890;28;98210;-75
2022/03/16 01:21:49;;;;;;;1999.90;999.90;;;;;;;2.20;55.40;102121.72;4926160;28;97695;-77
2022/03/16 01:24:16;;;;;;;1999.90;999.90;;;;;;;2.19;55.03;102127.78;4924875;28;99121;-77
2022/03/16 01:26:44;;;;;;;1999.90;999.90;;;;;;;2.16;55.07;102124.03;4925450;28;97268;-76
2022/03/16 01:29:13;;;;;;;1999.90;999.90;;;;;;;2.16;55.12;102127.53;4926973;28;97188;-78
2022/03/16 01:31:41;;;;;;;1999.90;999.90;;;;;;;2.13;55.00;102135.19;4925933;28;97573;-76
2022/03/16 01:34:08;;;;;;;1999.90;999.90;;;;;;;2.63;54.24;102124.97;4905161;28;99263;-76
2022/03/16 01:36:37;;;;;;;1999.90;999.90;;;;;;;2.90;54.54;102121.72;4922423;28;98862;-76
2022/03/16 01:39:05;;;;;;;1999.90;999.90;;;;;;;2.47;55.13;102132.50;4908415;28;97916;-76
2022/03/16 01:41:33;;;;;;;1999.90;999.90;;;;;;;2.89;54.13;102133.06;4905155;28;98263;-75
2022/03/16 01:44:02;;;;;;;1999.90;999.90;;;;;;;2.45;54.94;102134.09;4922870;28;97677;-75
2022/03/16 01:46:31;;;;;;;1999.90;999.90;;;;;;;2.29;55.96;102141.63;4925154;28;97542;-76
2022/03/16 01:48:59;;;;;;;1999.90;999.90;;;;;;;2.18;55.61;102144.34;4924875;28;96882;-76
2022/03/16 01:51:28;;;;;;;1999.90;999.90;;;;;;;2.12;55.42;102146.50;4908687;28;97043;-76
2022/03/16 01:53:58;;;;;;;1999.90;999.90;;;;;;;2.02;55.64;102151.81;4924001;28;100882;-77
2022/03/16 01:56:25;;;;;;;1999.90;999.90;;;;;;;1.94;55.50;102152.94;4922350;28;98847;-75
2022/03/16 01:58:53;;;;;;;1999.90;999.90;;;;;;;1.89;55.26;102153.38;4925136;28;97736;-76
2022/03/16 02:01:21;;;;;;;1999.90;999.90;;;;;;;1.86;55.51;102156.66;4908098;28;96941;-75
2022/03/16 02:03:50;;;;;;;1999.90;999.90;;;;;;;1.82;55.69;102157.22;4923633;28;98503;-75
2022/03/16 02:06:17;;;;;;;1999.90;999.90;;;;;;;1.80;55.17;102163.13;4922280;28;99294;-75
2022/03/16 02:08:46;;;;;;;1999.90;999.90;;;;;;;1.77;55.62;102166.44;4925006;28;99131;-76
2022/03/16 02:11:14;;;;;;;1999.90;999.90;;;;;;;1.73;55.81;102166.06;4925697;28;97031;-75
2022/03/16 02:13:42;;;;;;;1999.90;999.90;;;;;;;1.70;55.17;102174.66;4908557;28;100455;-75
2022/03/16 02:16:12;;;;;;;1999.90;999.90;;;;;;;1.65;55.66;102172.44;4921229;28;97802;-76
2022/03/16 02:18:40;;;;;;;1999.90;999.90;;;;;;;1.60;55.98;102177.31;4926871;28;97701;-75
2022/03/16 02:21:10;;;;;;;1999.90;999.90;;;;;;;1.57;55.92;102179.72;4924040;28;96804;-76
2022/03/16 02:23:39;;;;;;;1999.90;999.90;;;;;;;1.55;55.75;102178.66;4922291;28;97739;-76
2022/03/16 02:26:08;;;;;;;1999.90;999.90;;;;;;;1.54;55.70;102176.84;4923317;28;99170;-75
2022/03/16 02:28:36;;;;;;;1999.90;999.90;;;;;;;1.51;55.99;102184.47;4923532;28;97433;-76
2022/03/16 02:31:04;;;;;;;1999.90;999.90;;;;;;;1.49;56.20;102185.16;4925817;28;97305;-76
2022/03/16 02:33:31;;;;;;;1999.90;999.90;;;;;;;1.47;55.91;102192.88;4924008;28;99402;-77
2022/03/16 02:35:59;;;;;;;1999.90;999.90;;;;;;;1.44;55.34;102197.88;4924010;28;99605;-75
2022/03/16 02:38:27;;;;;;;1999.90;999.90;;;;;;;1.43;55.97;102195.16;4922012;28;97568;-76
2022/03/16 02:40:56;;;;;;;1999.90;999.90;;;;;;;1.40;55.67;102193.19;4923612;28;96922;-77
2022/03/16 02:43:24;;;;;;;1999.90;999.90;;;;;;;1.39;55.87;102198.31;4907791;28;100636;-76
2022/03/16 02:45:52;;;;;;;1999.90;999.90;;;;;;;1.36;55.60;102206.84;4923036;28;98912;-77
2022/03/16 02:48:20;;;;;;;1999.90;999.90;;;;;;;1.34;56.22;102211.06;4921707;28;97753;-76
2022/03/16 02:50:48;;;;;;;1999.90;999.90;;;;;;;1.34;56.23;102215.38;4910350;28;99849;-76
2022/03/16 02:53:16;;;;;;;1999.90;999.90;;;;;;;1.30;55.93;102219.47;4924923;28;99226;-77
2022/03/16 02:55:51;;;;;;;1999.90;999.90;;;;;;;1.30;56.11;102224.72;4928062;28;99356;-77
2022/03/16 02:58:20;;;;;;;1999.90;999.90;;;;;;;1.29;55.70;102233.34;4926742;28;97616;-77
2022/03/16 03:00:48;;;;;;;1999.90;999.90;;;;;;;1.29;56.13;102235.97;4928962;28;97391;-77
2022/03/16 03:03:17;;;;;;;1999.90;999.90;;;;;;;1.27;56.62;102237.56;4926703;28;98935;-76
2022/03/16 03:05:45;;;;;;;1999.90;999.90;;;;;;;1.25;56.07;102243.50;4925693;28;100848;-75
2022/03/16 03:08:13;;;;;;;1999.90;999.90;;;;;;;1.23;56.02;102237.19;4924906;28;98713;-75
2022/03/16 03:10:40;;;;;;;1999.90;999.90;;;;;;;1.21;56.10;102239.69;4912598;28;97619;-76
2022/03/16 03:13:09;;;;;;;1999.90;999.90;;;;;;;1.20;56.02;102246.63;4926710;28;98061;-75
2022/03/16 03:15:38;;;;;;;1999.90;999.90;;;;;;;1.16;56.27;102249.78;4909895;28;97621;-75
2022/03/16 03:18:06;;;;;;;1999.90;999.90;;;;;;;1.14;56.71;102251.38;4928162;28;97194;-75
2022/03/16 03:20:33;;;;;;;1999.90;999.90;;;;;;;1.13;56.54;102253.88;4924076;28;97705;-76
2022/03/16 03:23:01;;;;;;;1999.90;999.90;;;;;;;1.10;56.38;102257.16;4928052;28;97682;-77
2022/03/16 03:25:29;;;;;;;1999.90;999.90;;;;;;;1.11;56.56;102263.31;4926412;28;98899;-76
2022/03/16 03:27:57;;;;;;;1999.90;999.90;;;;;;;1.12;56.48;102267.78;4928950;28;97734;-76
2022/03/16 03:30:24;;;;;;;1999.90;999.90;;;;;;;1.08;56.19;102274.50;4928364;28;97166;-75
2022/03/16 03:32:53;;;;;;;1999.90;999.90;;;;;;;1.07;56.15;102276.94;4928869;28;97646;-75
2022/03/16 03:35:21;;;;;;;1999.90;999.90;;;;;;;1.04;56.44;102277.63;4926940;28;99599;-75
2022/03/16 03:37:51;;;;;;;1999.90;999.90;;;;;;;1.02;56.36;102280.91;4927205;28;97648;-76
2022/03/16 03:40:18;;;;;;;1999.90;999.90;;;;;;;1.02;56.29;102275.66;4926360;28;96822;-76
2022/03/16 03:42:46;;;;;;;1999.90;999.90;;;;;;;1.00;56.26;102275.53;4927548;28;98838;-75
2022/03/16 03:45:14;;;;;;;1999.90;999.90;;;;;;;0.99;56.59;102272.81;4926319;28;97515;-76
2022/03/16 03:47:41;;;;;;;1999.90;999.90;;;;;;;0.98;56.57;102276.19;4919422;28;98472;-76
2022/03/16 03:50:11;;;;;;;1999.90;999.90;;;;;;;0.97;56.62;102279.63;4920325;28;96897;-75
2022/03/16 03:52:39;;;;;;;1999.90;999.90;;;;;;;0.97;56.46;102282.22;4919192;28;99393;-76
2022/03/16 03:55:07;;;;;;;1999.90;999.90;;;;;;;0.98;56.28;102279.72;4918985;28;100650;-76
2022/03/16 03:57:35;;;;;;;1999.90;999.90;;;;;;;0.96;56.27;102281.31;4923593;28;99389;-76
2022/03/16 04:00:04;;;;;;;1999.90;999.90;;;;;;;0.97;56.42;102274.38;4923652;28;97764;-76
2022/03/16 04:02:38;;;;;;;1999.90;999.90;;;;;;;0.96;56.21;102275.16;4923128;28;99728;-76
2022/03/16 04:05:06;;;;;;;1999.90;999.90;;;;;;;0.98;56.30;102270.94;4925045;28;98770;-76
2022/03/16 04:07:35;;;;;;;1999.90;999.90;;;;;;;0.98;56.10;102266.63;4907843;28;98303;-76
2022/03/16 04:10:04;;;;;;;1999.90;999.90;;;;;;;0.98;56.47;102265.72;4925544;28;97523;-76
2022/03/16 04:12:32;;;;;;;1999.90;999.90;;;;;;;0.99;56.69;102268.47;4909065;28;98454;-75
2022/03/16 04:14:59;;;;;;;1999.90;999.90;;;;;;;1.01;56.60;102265.97;4925123;28;99152;-75
2022/03/16 04:17:27;;;;;;;1999.90;999.90;;;;;;;1.03;56.24;102267.03;4925423;28;99463;-75
2022/03/16 04:19:55;;;;;;;1999.90;999.90;;;;;;;1.04;56.12;102269.78;4924392;28;97105;-75
2022/03/16 04:22:22;;;;;;;1999.90;999.90;;;;;;;1.03;56.26;102270.53;4920661;28;98794;-75
2022/03/16 04:24:51;;;;;;;1999.90;999.90;;;;;;;1.00;56.29;102267.69;4924216;28;98765;-77
2022/03/16 04:27:20;;;;;;;1999.90;999.90;;;;;;;0.99;56.62;102264.94;4924029;28;98599;-76
2022/03/16 04:29:47;;;;;;;1999.90;999.90;;;;;;;0.98;56.64;102261.38;4925309;28;96902;-78
2022/03/16 04:32:15;;;;;;;1999.90;999.90;;;;;;;0.99;56.45;102260.63;4925114;28;97750;-76
2022/03/16 04:34:43;;;;;;;1999.90;999.90;;;;;;;0.98;56.27;102266.63;4924212;28;98922;-76
2022/03/16 04:37:11;;;;;;;1999.90;999.90;;;;;;;0.98;56.49;102265.72;4924086;28;100012;-76
2022/03/16 04:39:38;;;;;;;1999.90;999.90;;;;;;;0.96;56.27;102265.59;4927599;28;96799;-76
2022/03/16 04:42:08;;;;;;;1999.90;999.90;;;;;;;0.94;56.67;102264.53;4922891;28;99621;-76
2022/03/16 04:44:36;;;;;;;1999.90;999.90;;;;;;;0.93;56.16;102267.03;4921788;28;100396;-76
2022/03/16 04:47:04;;;;;;;1999.90;999.90;;;;;;;0.94;56.92;102266.28;4924252;28;96886;-76
2022/03/16 04:49:32;;;;;;;1999.90;999.90;;;;;;;0.94;56.69;102268.88;4924435;28;96978;-76
2022/03/16 04:52:00;;;;;;;1999.90;999.90;;;;;;;0.93;56.15;102267.03;4924951;28;97790;-77
2022/03/16 04:54:28;;;;;;;1999.90;999.90;;;;;;;0.95;56.26;102273.31;4925524;28;98681;-76
2022/03/16 04:56:57;;;;;;;1999.90;999.90;;;;;;;0.96;56.40;102278.69;4924031;28;97710;-76
2022/03/16 04:59:26;;;;;;;1999.90;999.90;;;;;;;0.96;56.33;102267.28;4924687;28;96956;-77
2022/03/16 05:01:54;;;;;;;1999.90;999.90;;;;;;;0.95;57.12;102275.94;4921378;28;99313;-77
2022/03/16 05:04:21;;;;;;;1999.90;999.90;;;;;;;0.93;56.87;102267.03;4921317;28;100314;-75
2022/03/16 05:06:49;;;;;;;1999.90;999.90;;;;;;;0.92;56.58;102271.34;4922553;28;97473;-76
2022/03/16 05:09:17;;;;;;;1999.90;999.90;;;;;;;0.91;56.47;102271.22;4923365;28;96975;-75
2022/03/16 05:11:44;;;;;;;1999.90;999.90;;;;;;;0.89;56.62;102281.59;4924247;28;98909;-77
2022/03/16 05:14:12;;;;;;;1999.90;999.90;;;;;;;0.86;56.70;102283.03;4923389;28;99396;-76
2022/03/16 05:16:41;;;;;;;1999.90;999.90;;;;;;;0.84;56.65;102287.25;4924245;28;96882;-76
2022/03/16 05:19:09;;;;;;;1999.90;999.90;;;;;;;0.80;56.64;102295.63;4924429;28;96872;-76
2022/03/16 05:21:37;;;;;;;1999.90;999.90;;;;;;;0.78;56.61;102286.72;4920853;28;100786;-77
2022/03/16 05:24:05;;;;;;;1999.90;999.90;;;;;;;0.76;56.28;102285.66;4921128;28;101279;-77
2022/03/16 05:26:33;;;;;;;1999.90;999.90;;;;;;;0.73;56.79;102285.41;4922695;28;97053;-77
2022/03/16 05:29:01;;;;;;;1999.90;999.90;;;;;;;0.71;56.61;102289.59;4919780;28;96933;-77
2022/03/16 05:31:29;;;;;;;1999.90;999.90;;;;;;;0.67;56.62;102282.28;4920953;28;99290;-77
2022/03/16 05:33:58;;;;;;;1999.90;999.90;;;;;;;0.65;56.36;102292.63;4921043;28;96878;-75
2022/03/16 05:36:25;;;;;;;1999.90;999.90;;;;;;;0.62;56.66;102291.44;4918270;28;98309;-76
2022/03/16 05:38:53;;;;;;;1999.90;999.90;;;;;;;0.63;56.52;102303.78;4924834;28;97198;-75
2022/03/16 05:41:20;;;;;;;1999.90;999.90;;;;;;;0.60;56.62;102295.63;4922690;28;98633;-77
2022/03/16 05:43:48;;;;;;;1999.90;999.90;;;;;;;0.58;56.39;102291.97;4922359;28;97836;-76
2022/03/16 05:46:16;;;;;;;1999.90;999.90;;;;;;;0.54;56.59;102293.41;4924533;28;97017;-78
2022/03/16 05:48:44;;;;;;;1999.90;999.90;;;;;;;0.52;56.41;102294.09;4924761;28;97821;-77
2022/03/16 05:51:13;;;;;;;1999.90;999.90;;;;;;;0.50;56.97;102290.41;4917655;28;99909;-77
2022/03/16 05:53:40;;;;;;;1999.90;999.90;;;;;;;0.48;56.84;102302.47;4923039;28;100866;-76
2022/03/16 05:56:08;;;;;;;1999.90;999.90;;;;;;;0.50;56.68;102300.91;4906732;28;97062;-77
2022/03/16 05:58:36;;;;;;;1999.90;999.90;;;;;;;0.50;56.62;102309.69;4907241;28;97063;-77
2022/03/16 06:01:03;;;;;;;1999.90;999.90;;;;;;;0.52;56.54;102313.31;4922532;28;100794;-77
2022/03/16 06:03:31;;;;;;;1999.90;999.90;;;;;;;0.51;56.69;102318.44;4938704;28;99443;-77
2022/03/16 06:06:00;;;;;;;1999.90;999.90;;;;;;;0.51;56.89;102308.88;4922753;28;97627;-77
2022/03/16 06:08:29;;;;;;;1999.90;999.90;;;;;;;0.52;56.78;102313.31;4906281;28;96874;-78
2022/03/16 06:10:56;;;;;;;1999.90;999.90;;;;;;;0.54;56.74;102313.47;4924064;28;98656;-77
2022/03/16 06:13:25;;;;;;;1999.90;999.90;;;;;;;0.55;56.73;102316.22;4908026;28;100679;-78
2022/03/16 06:15:53;;;;;;;1999.90;999.90;;;;;;;0.57;56.80;102318.97;4924298;28;97491;-77
2022/03/16 06:18:21;;;;;;;1999.90;999.90;;;;;;;0.57;56.83;102318.97;4925437;28;97838;-77
2022/03/16 06:20:49;;;;;;;1999.90;999.90;;;;;;;0.57;56.64;102321.59;4923799;28;99375;-78
2022/03/16 06:23:16;;;;;;;1999.90;999.90;;;;;;;0.58;56.57;102323.41;4922278;28;99257;-77
2022/03/16 06:25:45;;;;;;;1999.90;999.90;;;;;;;0.59;56.48;102331.41;4904284;28;99162;-77
2022/03/16 06:28:13;;;;;;;1999.90;999.90;;;;;;;0.59;56.67;102325.25;4924179;28;97636;-76
2022/03/16 06:30:41;;;;;;;1999.90;999.90;;;;;;;0.58;56.33;102329.56;4920074;28;98998;-76
2022/03/16 06:33:08;;;;;;;1999.90;999.90;;;;;;;0.60;56.38;102332.31;4924991;28;97748;-76
2022/03/16 06:35:36;;;;;;;1999.90;999.90;;;;;;;0.61;56.49;102340.28;4923734;28;96949;-77
2022/03/16 06:38:04;;;;;;;1999.90;999.90;;;;;;;0.66;56.32;102336.38;4926133;28;96784;-77
2022/03/16 06:40:31;;;;;;;1999.90;999.90;;;;;;;0.67;56.67;102342.53;4937252;28;100445;-76
2022/03/16 06:43:00;;;;;;;1999.90;999.90;;;;;;;0.71;56.47;102336.75;4924876;28;98164;-78
2022/03/16 06:45:29;;;;;;;1999.90;999.90;;;;;;;0.73;56.14;102356.16;4921081;28;98120;-77
2022/03/16 06:47:58;;;;;;;1999.90;999.90;;;;;;;0.74;56.54;102347.53;4922744;28;97764;-78
2022/03/16 06:50:27;;;;;;;1999.90;999.90;;;;;;;0.75;55.94;102349.34;4915970;28;99177;-76
2022/03/16 06:52:56;;;;;;;1999.90;999.90;;;;;;;0.78;56.02;102357.44;4922016;28;97382;-77
2022/03/16 06:55:25;;;;;;;1999.90;999.90;;;;;;;0.80;56.25;102356.81;4919555;28;98707;-76
2022/03/16 06:57:52;;;;;;;1999.90;999.90;;;;;;;0.82;56.28;102363.09;4901332;28;97666;-76
2022/03/16 07:00:21;;;;;;;1999.90;999.90;;;;;;;0.87;55.88;102363.47;4919465;28;99361;-76
2022/03/16 07:02:51;;;;;;;1999.90;999.90;;;;;;;0.89;56.46;102359.28;4892727;28;100986;-76
2022/03/16 07:05:19;;;;;;;1999.90;999.90;;;;;;;0.95;56.24;102358.13;4916893;28;97124;-76
2022/03/16 07:07:49;;;;;;;1999.90;999.90;;;;;;;1.02;55.94;102363.09;4919639;28;96937;-77
2022/03/16 07:10:17;;;;;;;1999.90;999.90;;;;;;;1.09;56.01;102359.25;4912699;28;102050;-77
2022/03/16 07:12:45;;;;;;;1999.90;999.90;;;;;;;1.15;55.85;102358.09;4914886;28;100292;-76
2022/03/16 07:15:13;;;;;;;1999.90;999.90;;;;;;;1.20;55.51;102364.63;4918566;28;97717;-76
2022/03/16 07:17:42;;;;;;;1999.90;999.90;;;;;;;1.26;55.59;102366.84;4892343;28;99431;-77
2022/03/16 07:20:10;;;;;;;1999.90;999.90;;;;;;;1.33;55.89;102368.25;4914841;28;98223;-77
2022/03/16 07:22:38;;;;;;;1999.90;999.90;;;;;;;1.39;55.47;102364.47;4919054;28;97539;-76
2022/03/16 07:25:21;;;;;;;1999.90;999.90;;;;;;;1.46;55.33;102366.78;4913905;28;99316;-77
2022/03/16 07:27:49;;;;;;;1999.90;999.90;;;;;;;1.50;54.82;102373.22;4921848;28;97874;-76
2022/03/16 07:30:18;;;;;;;1999.90;999.90;;;;;;;1.54;55.37;102372.69;4918870;28;97815;-76
2022/03/16 07:32:48;;;;;;;1999.90;999.90;;;;;;;1.58;55.28;102373.03;4936355;28;99953;-76
2022/03/16 07:35:16;;;;;;;1999.90;999.90;;;;;;;1.63;55.15;102374.34;4916086;28;96955;-75
2022/03/16 07:37:47;;;;;;;1999.90;999.90;;;;;;;1.66;55.05;102371.06;4919292;28;98692;-76
2022/03/16 07:40:15;;;;;;;1999.90;999.90;;;;;;;1.68;55.32;102372.09;4916011;28;99410;-75
2022/03/16 07:42:45;;;;;;;1999.90;999.90;;;;;;;1.74;54.81;102373.53;4918634;28;98553;-75
2022/03/16 07:45:14;;;;;;;1999.90;999.90;;;;;;;1.78;55.37;102380.84;4920482;28;97173;-76
2022/03/16 07:47:42;;;;;;;1999.90;999.90;;;;;;;1.83;55.24;102379.53;4920690;28;96789;-76
2022/03/16 07:50:12;;;;;;;1999.90;999.90;;;;;;;1.88;55.00;102383.44;4916190;28;100387;-76
2022/03/16 07:52:39;;;;;;;1999.90;999.90;;;;;;;1.92;54.27;102377.66;4918432;28;100415;-75
2022/03/16 07:55:08;;;;;;;1999.90;999.90;;;;;;;1.98;54.56;102380.75;4920117;28;96893;-75
2022/03/16 07:57:36;;;;;;;1999.90;999.90;;;;;;;2.04;54.87;102385.56;4918632;28;98564;-75
2022/03/16 08:00:05;;;;;;;1999.90;999.90;;;;;;;2.09;55.04;102386.94;4915448;28;98881;-76
2022/03/16 08:02:33;;;;;;;1999.90;999.90;;;;;;;2.16;54.57;102392.75;4917394;28;97949;-76
2022/03/16 08:05:01;;;;;;;1999.90;999.90;;;;;;;2.24;54.55;102395.13;4897595;28;97327;-75
2022/03/16 08:07:30;;;;;;;1999.90;999.90;;;;;;;2.32;54.06;102404.50;4918917;28;97740;-75
2022/03/16 08:09:59;;;;;;;1999.90;999.90;;;;;;;2.37;54.00;102403.16;4917616;28;102145;-74
2022/03/16 08:12:27;;;;;;;1999.90;999.90;;;;;;;2.46;54.40;102393.38;4914004;28;100339;-76
2022/03/16 08:14:55;;;;;;;1999.90;999.90;;;;;;;2.48;54.03;102391.78;4915753;28;98407;-75
2022/03/16 08:17:23;;;;;;;1999.90;999.90;;;;;;;2.56;53.89;102403.84;4920233;28;97807;-75
2022/03/16 08:19:51;;;;;;;1999.90;999.90;;;;;;;2.64;54.55;102400.06;4913948;28;98975;-75
2022/03/16 08:22:26;;;;;;;1999.90;999.90;;;;;;;2.72;54.48;102404.25;4915487;28;97557;-76
2022/03/16 08:24:56;;;;;;;1999.90;999.90;;;;;;;2.79;53.77;102402.22;4912570;28;97689;-77
2022/03/16 08:27:24;;;;;;;1999.90;999.90;;;;;;;2.90;53.67;102408.28;4913376;28;98010;-76
2022/03/16 08:29:53;;;;;;;1999.90;999.90;;;;;;;2.98;54.02;102409.81;4917051;28;100817;-76
2022/03/16 08:32:21;;;;;;;1999.90;999.90;;;;;;;3.02;53.50;102409.25;4911974;28;98650;-75
2022/03/16 08:34:50;;;;;;;1999.90;999.90;;;;;;;3.10;53.43;102410.75;4914411;28;96887;-76
2022/03/16 08:37:18;;;;;;;1999.90;999.90;;;;;;;3.18;53.57;102409.63;4915972;28;98596;-76
2022/03/16 08:39:46;;;;;;;1999.90;999.90;;;;;;;3.24;53.43;102408.38;4918403;28;101596;-77
2022/03/16 08:42:16;;;;;;;1999.90;999.90;;;;;;;3.32;53.47;102408.97;4915229;28;99336;-76
2022/03/16 08:44:45;;;;;;;1999.90;999.90;;;;;;;3.40;53.23;102407.84;4917690;28;98451;-76
2022/03/16 08:47:16;;;;;;;1999.90;999.90;;;;;;;3.47;52.99;102412.75;4919288;28;98435;-76
2022/03/16 08:49:45;;;;;;;1999.90;999.90;;;;;;;3.56;53.16;102421.34;4918499;28;98584;-76
2022/03/16 08:52:13;;;;;;;1999.90;999.90;;;;;;;3.64;52.80;102417.56;4910431;28;97660;-77
2022/03/16 08:54:41;;;;;;;1999.90;999.90;;;;;;;3.71;52.91;102405.81;4930988;28;97922;-77
2022/03/16 08:57:09;;;;;;;1999.90;999.90;;;;;;;3.79;53.05;102410.84;4918379;28;99144;-75
2022/03/16 08:59:39;;;;;;;1999.90;999.90;;;;;;;3.85;52.86;102408.69;4921131;28;99600;-75
2022/03/16 09:02:07;;;;;;;1999.90;999.90;;;;;;;3.91;52.81;102411.78;4922286;28;100169;-76
2022/03/16 09:04:35;;;;;;;1999.90;999.90;;;;;;;3.98;52.44;102419.31;4925290;28;97262;-75
2022/03/16 09:07:03;;;;;;;1999.90;999.90;;;;;;;4.06;52.44;102423.41;4926234;28;97047;-76
2022/03/16 09:09:37;;;;;;;1999.90;999.90;;;;;;;4.12;52.65;102428.22;4924990;28;98078;-79
2022/03/16 09:12:08;;;;;;;1999.90;999.90;;;;;;;4.20;52.41;102432.34;4926177;28;98991;-75
2022/03/16 09:14:36;;;;;;;1999.90;999.90;;;;;;;4.27;52.39;102428.41;4925315;28;96849;-76
2022/03/16 09:17:06;;;;;;;1999.90;999.90;;;;;;;4.32;52.16;102421.78;4927092;28;97493;-76
2022/03/16 09:19:34;;;;;;;1999.90;999.90;;;;;;;4.37;52.21;102431.81;4927484;28;99214;-76
2022/03/16 09:22:04;;;;;;;1999.90;999.90;;;;;;;4.41;52.22;102422.44;4926278;28;97169;-76
2022/03/16 09:24:33;;;;;;;1999.90;999.90;;;;;;;4.48;52.13;102419.44;4925452;28;97022;-76
2022/03/16 09:27:01;;;;;;;1999.90;999.90;;;;;;;4.54;52.01;102425.13;4906165;28;97373;-75
2022/03/16 09:29:29;;;;;;;1999.90;999.90;;;;;;;4.59;52.01;102423.75;4925236;28;97860;-76
2022/03/16 09:32:07;;;;;;;1999.90;999.90;;;;;;;4.63;52.11;102416.16;4926416;28;97537;-76
2022/03/16 09:34:35;;;;;;;1999.90;999.90;;;;;;;4.69;52.27;102426.22;4927557;28;97805;-76
2022/03/16 09:37:04;;;;;;;1999.90;999.90;;;;;;;4.77;52.07;102425.06;4927005;28;97430;-76
2022/03/16 09:39:32;;;;;;;1999.90;999.90;;;;;;;4.81;51.92;102422.72;4908542;28;99149;-76
2022/03/16 09:42:00;;;;;;;1999.90;999.90;;;;;;;4.88;51.85;102424.97;4926095;28;97886;-74
2022/03/16 09:44:28;;;;;;;1999.90;999.90;;;;;;;4.96;51.91;102421.16;4924329;28;97407;-73
2022/03/16 09:46:58;;;;;;;1999.90;999.90;;;;;;;5.03;51.72;102420.81;4920037;28;97780;-74
2022/03/16 09:49:28;;;;;;;1999.90;999.90;;;;;;;5.12;51.68;102420.53;4924534;28;99573;-74
2022/03/16 09:51:58;;;;;;;1999.90;999.90;;;;;;;5.19;51.68;102417.53;4920435;28;98508;-75
2022/03/16 09:54:26;;;;;;;1999.90;999.90;;;;;;;5.28;51.64;102420.78;4921877;28;97171;-75
2022/03/16 09:56:55;;;;;;;1999.90;999.90;;;;;;;5.37;51.45;102433.69;4924336;28;97230;-75
2022/03/16 09:59:23;;;;;;;1999.90;999.90;;;;;;;5.42;51.20;102422.63;4917655;28;100699;-75
2022/03/16 10:01:58;;;;;;;1999.90;999.90;;;;;;;5.49;51.40;102429.22;4921548;28;101397;-76
2022/03/16 10:04:33;;;;;;;1999.90;999.90;;;;;;;5.57;51.07;102425.41;4921676;28;97725;-75
2022/03/16 10:07:02;;;;;;;1999.90;999.90;;;;;;;5.63;51.14;102428.47;4940849;28;97114;-76
2022/03/16 10:15:10;;;;;;;1999.90;999.90;;;;;;;5.79;51.09;102426.94;4900678;28;97424;-72
2022/03/16 10:17:45;;;;;;;1999.90;999.90;;;;;;;5.83;50.81;102420.13;4900867;28;97773;-73
2022/03/16 10:20:27;;;;;;;1999.90;999.90;;;;;;;5.86;51.24;102413.34;4917942;28;99747;-72
2022/03/16 10:22:57;;;;;;;1999.90;999.90;;;;;;;5.95;50.68;102411.28;4898161;28;99078;-72
2022/03/16 10:25:25;;;;;;;1999.90;999.90;;;;;;;5.99;50.58;102405.41;4900225;28;97283;-72
2022/03/16 10:27:53;;;;;;;1999.90;999.90;;;;;;;6.04;50.50;102401.31;4904619;28;97145;-72
2022/03/16 10:30:56;;;;;;;1999.90;999.90;;;;;;;6.09;50.35;102409.53;4905599;28;97789;-72
2022/03/16 10:33:26;;;;;;;1999.90;999.90;;;;;;;6.13;50.18;102415.13;4904808;28;97771;-72
2022/03/16 10:36:00;;;;;;;1999.90;999.90;;;;;;;6.19;50.33;102409.31;4902130;28;97473;-71
2022/03/16 10:38:29;;;;;;;1999.90;999.90;;;;;;;6.25;50.24;102404.41;4913831;28;97785;-72
2022/03/16 10:41:10;;;;;;;1999.90;999.90;;;;;;;6.32;50.37;102401.41;4898994;28;98447;-72
2022/03/16 10:46:38;;;;;;;1999.90;999.90;;;;;;;6.51;49.62;102403.47;4891050;28;98543;-72
2022/03/16 10:49:09;;;;;;;1999.90;999.90;;;;;;;6.58;49.45;102393.38;4899586;28;97765;-72
2022/03/16 10:51:39;;;;;;;1999.90;999.90;;;;;;;6.64;49.39;102400.78;4902188;28;99488;-72
2022/03/16 10:54:23;;;;;;;1999.90;999.90;;;;;;;6.72;49.16;102394.25;4897715;28;98482;-72
2022/03/16 10:56:51;;;;;;;1999.90;999.90;;;;;;;6.76;49.22;102391.88;4895851;28;97386;-72
2022/03/16 10:59:20;;;;;;;1999.90;999.90;;;;;;;6.82;48.97;102393.97;4903393;28;97630;-72
2022/03/16 11:01:48;;;;;;;1999.90;999.90;;;;;;;6.85;48.86;102389.78;4903335;28;97649;-72
2022/03/16 11:04:24;;;;;;;1999.90;999.90;;;;;;;6.91;48.64;102398.13;4901814;28;99766;-72
2022/03/16 11:06:55;;;;;;;1999.90;999.90;;;;;;;6.92;48.58;102397.31;4903971;28;96594;-72